createdAt,value
2022-12-23T00:01:39.247Z,15.57
2022-12-23T00:04:06.389Z,14.53
2022-12-23T00:06:33.444Z,14.57
2022-12-23T00:09:00.407Z,13.57
2022-12-23T00:11:28.343Z,14.37
2022-12-23T00:14:20.636Z,14.97
2022-12-23T00:16:49.148Z,15.23
2022-12-23T00:19:16.089Z,14.60
2022-12-23T00:21:42.841Z,15.67
2022-12-23T00:24:11.468Z,15.17
2022-12-23T00:26:40.253Z,15.60
2022-12-23T00:29:07.086Z,14.80
2022-12-23T00:31:34.006Z,15.07
2022-12-23T00:34:02.053Z,14.27
2022-12-23T00:36:30.697Z,15.27
2022-12-23T00:39:18.792Z,16.00
2022-12-23T00:42:04.408Z,14.77
2022-12-23T00:44:31.659Z,16.17
2022-12-23T00:46:58.664Z,16.60
2022-12-23T00:49:44.228Z,16.20
2022-12-23T00:52:13.733Z,17.27
2022-12-23T00:54:40.939Z,16.57
2022-12-23T00:57:07.836Z,16.67
2022-12-23T00:59:34.716Z,16.03
2022-12-23T01:02:21.110Z,16.03
2022-12-23T01:05:06.403Z,16.43
2022-12-23T01:07:33.337Z,15.40
2022-12-23T01:10:01.411Z,16.33
2022-12-23T01:12:29.527Z,16.60
2022-12-23T01:14:56.566Z,17.97
2022-12-23T01:17:23.704Z,16.73
2022-12-23T01:19:51.412Z,18.53
2022-12-23T01:22:18.363Z,16.83
2022-12-23T01:24:45.254Z,16.77
2022-12-23T01:27:12.042Z,18.13
2022-12-23T01:29:38.964Z,16.87
2022-12-23T01:32:06.114Z,18.20
2022-12-23T01:34:37.076Z,17.27
2022-12-23T01:37:05.533Z,17.87
2022-12-23T01:39:32.725Z,18.13
2022-12-23T01:42:18.333Z,17.50
2022-12-23T01:44:57.485Z,18.13
2022-12-23T01:47:31.966Z,18.17
2022-12-23T01:50:23.927Z,17.77
2022-12-23T01:53:07.750Z,18.20
2022-12-23T01:55:51.596Z,17.63
2022-12-23T01:58:27.592Z,18.53
2022-12-23T02:01:15.514Z,16.20
2022-12-23T02:03:43.563Z,18.47
2022-12-23T02:06:53.281Z,16.20
2022-12-23T02:09:31.911Z,19.20
2022-12-23T02:12:07.883Z,19.43
2022-12-23T02:15:28.275Z,16.17
2022-12-23T02:18:13.335Z,17.00
2022-12-23T02:20:58.338Z,16.73
2022-12-23T02:23:43.889Z,17.70
2022-12-23T02:26:25.853Z,16.70
2022-12-23T02:29:20.173Z,16.77
2022-12-23T02:32:10.184Z,16.83
2022-12-23T02:34:54.511Z,16.07
2022-12-23T02:37:28.192Z,16.90
2022-12-23T02:40:02.534Z,17.20
2022-12-23T02:42:44.919Z,16.97
2022-12-23T02:45:31.785Z,16.37
2022-12-23T02:48:04.984Z,15.17
2022-12-23T02:50:35.199Z,16.37
2022-12-23T02:53:11.585Z,15.20
2022-12-23T02:55:42.011Z,16.47
2022-12-23T02:58:13.276Z,15.20
2022-12-23T03:00:42.477Z,13.13
2022-12-23T03:03:10.481Z,11.07
2022-12-23T03:05:41.176Z,12.77
2022-12-23T03:08:22.590Z,13.27
2022-12-23T03:11:01.798Z,12.57
2022-12-23T03:13:40.920Z,11.10
2022-12-23T03:16:18.079Z,11.83
2022-12-23T03:19:00.033Z,12.23
2022-12-23T03:21:33.889Z,11.40
2022-12-23T03:24:44.736Z,11.80
2022-12-23T03:27:47.683Z,11.97
2022-12-23T03:30:18.590Z,11.47
2022-12-23T03:33:02.936Z,13.47
2022-12-23T03:35:52.036Z,11.87
2022-12-23T03:38:19.729Z,12.00
2022-12-23T03:40:59.899Z,12.17
2022-12-23T03:43:32.884Z,12.77
2022-12-23T03:46:05.764Z,12.83
2022-12-23T03:48:46.666Z,13.23
2022-12-23T03:51:22.440Z,12.40
2022-12-23T03:53:56.345Z,13.40
2022-12-23T03:56:30.637Z,13.37
2022-12-23T03:59:09.092Z,13.73
2022-12-23T04:01:55.128Z,13.17
2022-12-23T04:04:35.523Z,13.90
2022-12-23T04:07:17.289Z,14.47
2022-12-23T04:09:45.009Z,14.40
2022-12-23T04:12:14.484Z,13.20
2022-12-23T04:14:51.918Z,14.47
2022-12-23T04:17:19.739Z,15.20
2022-12-23T04:19:47.486Z,13.30
2022-12-23T04:22:16.219Z,15.47
2022-12-23T04:24:43.289Z,13.40
2022-12-23T04:27:13.408Z,13.63
2022-12-23T04:29:40.432Z,13.47
2022-12-23T04:32:08.172Z,13.10
2022-12-23T04:34:35.235Z,12.13
2022-12-23T04:37:02.215Z,12.87
2022-12-23T04:39:29.134Z,15.37
2022-12-23T04:41:57.122Z,14.07
2022-12-23T04:44:25.159Z,13.67
2022-12-23T04:46:52.135Z,14.43
2022-12-23T04:49:19.127Z,15.53
2022-12-23T04:51:46.011Z,16.57
2022-12-23T04:54:12.839Z,15.87
2022-12-23T04:56:39.690Z,15.30
2022-12-23T04:59:06.622Z,14.63
2022-12-23T05:01:33.482Z,16.43
2022-12-23T05:04:00.493Z,16.43
2022-12-23T05:06:27.471Z,15.77
2022-12-23T05:08:54.220Z,16.70
2022-12-23T05:11:21.092Z,16.90
2022-12-23T05:13:47.889Z,17.17
2022-12-23T05:16:15.803Z,14.57
2022-12-23T05:18:42.836Z,16.70
2022-12-23T05:21:09.649Z,17.23
2022-12-23T05:23:36.574Z,18.33
2022-12-23T05:26:05.705Z,16.53
2022-12-23T05:28:32.690Z,16.87
2022-12-23T05:31:03.572Z,17.13
2022-12-23T05:33:32.457Z,16.30
2022-12-23T05:35:59.464Z,17.43
2022-12-23T05:38:28.405Z,15.77
2022-12-23T05:40:55.167Z,17.13
2022-12-23T05:43:23.148Z,17.23
2022-12-23T05:45:50.882Z,15.70
2022-12-23T05:48:18.374Z,16.73
2022-12-23T05:50:50.376Z,14.70
2022-12-23T05:53:19.116Z,15.53
2022-12-23T05:55:46.416Z,15.10
2022-12-23T05:58:13.200Z,16.30
2022-12-23T06:00:40.112Z,14.27
2022-12-23T06:03:07.763Z,14.17
2022-12-23T06:05:37.790Z,15.93
2022-12-23T06:08:05.061Z,15.57
2022-12-23T06:10:32.122Z,16.73
2022-12-23T06:12:59.071Z,15.80
2022-12-23T06:15:25.984Z,15.50
2022-12-23T06:17:52.710Z,16.03
2022-12-23T06:20:20.899Z,15.50
2022-12-23T06:22:47.961Z,15.93
2022-12-23T06:25:15.077Z,15.30
2022-12-23T06:27:41.807Z,17.30
2022-12-23T06:30:09.093Z,16.10
2022-12-23T06:32:38.541Z,17.70
2022-12-23T06:35:09.839Z,16.70
2022-12-23T06:37:36.675Z,17.03
2022-12-23T06:40:04.308Z,17.23
2022-12-23T06:42:31.177Z,15.63
2022-12-23T06:44:57.902Z,16.07
2022-12-23T06:47:24.645Z,15.30
2022-12-23T06:49:51.421Z,15.80
2022-12-23T06:52:18.165Z,15.60
2022-12-23T06:54:44.887Z,15.70
2022-12-23T06:57:11.604Z,14.80
2022-12-23T06:59:38.376Z,15.90
2022-12-23T07:02:05.847Z,15.87
2022-12-23T07:04:32.676Z,14.73
2022-12-23T07:06:59.394Z,15.87
2022-12-23T07:09:26.474Z,15.23
2022-12-23T07:11:53.459Z,16.27
2022-12-23T07:14:20.175Z,16.07
2022-12-23T07:16:47.159Z,15.77
2022-12-23T07:19:14.083Z,14.87
2022-12-23T07:21:40.900Z,17.20
2022-12-23T07:24:08.235Z,14.23
2022-12-23T07:26:34.998Z,14.80
2022-12-23T07:29:02.232Z,15.90
2022-12-23T07:31:29.092Z,15.63
2022-12-23T07:33:55.883Z,16.20
2022-12-23T07:36:22.577Z,16.17
2022-12-23T07:38:51.388Z,15.47
2022-12-23T07:41:18.818Z,14.60
2022-12-23T07:43:46.025Z,14.83
2022-12-23T07:46:12.941Z,16.07
2022-12-23T07:48:41.617Z,14.50
2022-12-23T07:51:08.386Z,14.67
2022-12-23T07:53:35.238Z,16.43
2022-12-23T07:56:02.155Z,15.67
2022-12-23T07:58:28.863Z,15.93
2022-12-23T08:01:04.212Z,16.63
2022-12-23T08:03:31.397Z,15.73
2022-12-23T08:06:03.541Z,15.33
2022-12-23T08:08:30.854Z,16.40
2022-12-23T08:11:03.413Z,18.07
2022-12-23T08:13:31.578Z,16.77
2022-12-23T08:15:59.872Z,15.47
2022-12-23T08:18:29.186Z,17.10
2022-12-23T08:21:00.887Z,16.20
2022-12-23T08:23:29.166Z,17.07
2022-12-23T08:26:07.125Z,17.03
2022-12-23T08:28:34.945Z,16.70
2022-12-23T08:31:20.042Z,14.93
2022-12-23T08:33:49.283Z,15.77
2022-12-23T08:36:23.266Z,16.43
2022-12-23T08:38:54.854Z,16.03
2022-12-23T08:41:25.221Z,15.33
2022-12-23T08:43:52.617Z,16.50
2022-12-23T08:46:20.085Z,16.77
2022-12-23T08:48:49.743Z,16.40
2022-12-23T08:51:18.688Z,17.40
2022-12-23T08:53:46.221Z,17.40
2022-12-23T08:56:19.805Z,17.53
2022-12-23T08:58:48.466Z,16.33
2022-12-23T09:01:18.011Z,16.43
2022-12-23T09:03:45.040Z,16.37
2022-12-23T09:06:23.186Z,18.47
2022-12-23T09:08:53.995Z,17.00
2022-12-23T09:11:23.294Z,16.20
2022-12-23T09:13:50.651Z,18.30
2022-12-23T09:16:18.068Z,17.87
2022-12-23T09:18:44.999Z,18.07
2022-12-23T09:21:17.181Z,16.83
2022-12-23T09:23:43.957Z,18.13
2022-12-23T09:26:16.653Z,17.03
2022-12-23T09:28:43.432Z,17.07
2022-12-23T09:31:12.184Z,16.70
2022-12-23T09:33:39.482Z,16.47
2022-12-23T09:36:06.733Z,17.03
2022-12-23T09:38:33.838Z,18.47
2022-12-23T09:41:14.664Z,18.97
2022-12-23T09:43:47.108Z,17.73
2022-12-23T09:46:17.114Z,19.27
2022-12-23T09:49:05.920Z,18.00
2022-12-23T09:51:33.340Z,17.63
2022-12-23T09:54:18.710Z,19.80
2022-12-23T09:57:11.239Z,18.10
2022-12-23T09:59:56.182Z,17.70
2022-12-23T10:02:35.012Z,18.70
2022-12-23T10:05:27.213Z,18.37
2022-12-23T10:08:13.264Z,19.17
2022-12-23T10:10:45.621Z,18.63
2022-12-23T10:13:25.618Z,17.27
2022-12-23T10:15:54.989Z,19.40
2022-12-23T10:18:44.781Z,20.10
2022-12-23T10:21:26.500Z,18.97
2022-12-23T10:23:55.026Z,17.20
2022-12-23T10:26:52.102Z,18.20
2022-12-23T10:29:21.854Z,15.87
2022-12-23T10:31:57.961Z,14.87
2022-12-23T10:34:52.131Z,15.53
2022-12-23T10:37:43.584Z,16.63
2022-12-23T10:40:27.209Z,15.67
2022-12-23T10:43:08.697Z,16.13
2022-12-23T10:46:01.385Z,17.70
2022-12-23T10:48:30.893Z,16.10
2022-12-23T10:51:08.567Z,17.73
2022-12-23T10:53:40.769Z,19.77
2022-12-23T10:56:09.025Z,18.03
2022-12-23T10:58:40.626Z,18.63
2022-12-23T11:01:16.094Z,19.50
2022-12-23T11:04:09.365Z,17.50
2022-12-23T11:06:42.453Z,17.20
2022-12-23T11:09:18.003Z,20.03
2022-12-23T11:11:56.737Z,17.97
2022-12-23T11:14:38.722Z,19.87
2022-12-23T11:17:17.319Z,18.07
2022-12-23T11:19:44.194Z,19.30
2022-12-23T11:22:23.508Z,17.27
2022-12-23T11:24:50.767Z,18.30
2022-12-23T11:27:18.491Z,18.10
2022-12-23T11:29:49.292Z,18.53
2022-12-23T11:32:22.290Z,17.80
2022-12-23T11:34:50.341Z,18.23
2022-12-23T11:37:43.243Z,19.27
2022-12-23T11:40:28.475Z,18.80
2022-12-23T11:43:01.533Z,19.57
2022-12-23T11:45:35.553Z,18.93
2022-12-23T11:48:04.425Z,18.77
2022-12-23T11:50:39.308Z,18.30
2022-12-23T11:53:22.070Z,18.00
2022-12-23T11:56:03.042Z,18.33
2022-12-23T11:58:34.101Z,16.90
2022-12-23T12:01:13.768Z,17.53
2022-12-23T12:03:48.371Z,17.53
2022-12-23T12:06:17.405Z,16.63
2022-12-23T12:08:47.805Z,17.03
2022-12-23T12:11:18.356Z,16.57
2022-12-23T12:13:49.212Z,16.73
2022-12-23T12:16:31.115Z,15.53
2022-12-23T12:19:04.289Z,15.80
2022-12-23T12:21:36.249Z,15.83
2022-12-23T12:24:25.420Z,17.97
2022-12-23T12:26:56.581Z,15.90
2022-12-23T12:29:32.454Z,17.47
2022-12-23T12:32:01.468Z,17.57
2022-12-23T12:34:53.342Z,17.17
2022-12-23T12:37:49.341Z,17.33
2022-12-23T12:40:35.152Z,16.27
2022-12-23T12:43:10.346Z,16.57
2022-12-23T12:45:47.767Z,16.60
2022-12-23T12:48:34.825Z,16.40
2022-12-23T12:51:09.294Z,17.33
2022-12-23T12:53:38.203Z,15.97
2022-12-23T12:56:14.481Z,16.33
2022-12-23T12:58:43.571Z,15.97
2022-12-23T13:01:17.780Z,16.87
2022-12-23T13:04:05.673Z,16.77
2022-12-23T13:06:44.432Z,18.10
2022-12-23T13:09:17.064Z,18.63
2022-12-23T13:12:19.318Z,14.97
2022-12-23T13:15:11.738Z,15.13
2022-12-23T13:18:03.900Z,16.67
2022-12-23T13:20:39.816Z,16.17
2022-12-23T13:26:21.610Z,14.67
2022-12-23T13:29:01.488Z,16.93
2022-12-23T13:31:42.173Z,16.23
2022-12-23T13:34:17.222Z,15.77
2022-12-23T13:36:56.911Z,14.77
2022-12-23T13:40:02.228Z,15.97
2022-12-23T13:42:35.318Z,16.23
2022-12-23T13:45:04.396Z,14.87
2022-12-23T13:48:11.805Z,15.73
2022-12-23T13:51:30.808Z,15.20
2022-12-23T13:54:04.484Z,15.70
2022-12-23T13:56:52.296Z,16.30
2022-12-23T13:59:19.136Z,16.33
2022-12-23T14:01:50.055Z,17.13
2022-12-23T14:04:32.757Z,17.40
2022-12-23T14:07:07.169Z,16.67
2022-12-23T14:09:38.265Z,16.20
2022-12-23T14:12:18.557Z,16.20
2022-12-23T14:15:10.641Z,14.70
2022-12-23T14:18:07.576Z,15.33
2022-12-23T14:21:00.971Z,15.37
2022-12-23T14:24:04.181Z,17.30
2022-12-23T14:26:49.002Z,15.47
2022-12-23T14:29:45.313Z,16.30
2022-12-23T14:32:41.926Z,16.70
2022-12-23T14:35:46.592Z,16.77
2022-12-23T14:38:16.765Z,15.53
2022-12-23T14:40:43.607Z,15.77
2022-12-23T14:43:31.423Z,16.50
2022-12-23T14:46:04.797Z,18.47
2022-12-23T14:48:34.536Z,16.63
2022-12-23T14:51:10.279Z,17.17
2022-12-23T14:53:53.821Z,21.77
2022-12-23T14:56:58.785Z,16.37
2022-12-23T14:59:49.321Z,19.80
2022-12-23T15:02:34.988Z,15.20
2022-12-23T15:05:02.680Z,15.33
2022-12-23T15:07:43.601Z,15.03
2022-12-23T15:10:28.972Z,15.23
2022-12-23T15:13:00.256Z,16.27
2022-12-23T15:15:30.960Z,16.17
2022-12-23T15:18:13.416Z,17.60
2022-12-23T15:20:40.934Z,17.93
2022-12-23T15:23:10.739Z,15.70
2022-12-23T15:25:44.526Z,16.90
2022-12-23T15:28:18.811Z,16.67
2022-12-23T15:30:55.266Z,16.90
2022-12-23T15:36:12.201Z,18.87
2022-12-23T15:38:39.651Z,17.57
2022-12-23T15:41:16.316Z,16.07
2022-12-23T15:43:44.626Z,15.30
2022-12-23T15:46:25.049Z,15.97
2022-12-23T15:48:54.158Z,15.50
2022-12-23T15:54:38.914Z,14.90
2022-12-23T15:57:05.929Z,15.23
2022-12-23T15:59:37.179Z,15.33
2022-12-23T16:02:58.485Z,16.67
2022-12-23T16:05:08.076Z,16.10
2022-12-23T16:07:39.837Z,17.40
2022-12-23T16:10:20.214Z,17.47
2022-12-23T16:12:50.368Z,18.00
2022-12-23T16:15:30.306Z,16.17
2022-12-23T16:18:47.012Z,16.37
2022-12-23T16:21:14.925Z,16.70
2022-12-23T16:23:50.309Z,18.53
2022-12-23T16:26:17.166Z,18.27
2022-12-23T16:28:47.008Z,20.80
2022-12-23T16:31:17.312Z,22.40
2022-12-23T16:33:49.773Z,22.23
2022-12-23T16:36:23.519Z,22.43
2022-12-23T16:38:52.967Z,21.50
2022-12-23T16:41:20.688Z,23.30
2022-12-23T16:43:51.921Z,23.40
2022-12-23T16:46:22.654Z,23.27
2022-12-23T16:48:58.627Z,23.50
2022-12-23T16:51:26.579Z,22.40
2022-12-23T16:53:56.450Z,22.67
2022-12-23T16:56:37.038Z,22.40
2022-12-23T16:59:04.903Z,22.33
2022-12-23T17:01:34.931Z,21.33
2022-12-23T17:04:02.089Z,21.20
2022-12-23T17:06:32.619Z,22.73
2022-12-23T17:08:59.454Z,23.17
2022-12-23T17:11:34.973Z,21.70
2022-12-23T17:14:06.737Z,24.10
2022-12-23T17:16:34.997Z,23.30
2022-12-23T17:19:01.815Z,23.83
2022-12-23T17:21:37.305Z,24.87
2022-12-23T17:24:24.782Z,23.67
2022-12-23T17:26:52.774Z,22.80
2022-12-23T17:29:19.944Z,24.40
2022-12-23T17:31:48.463Z,27.40
2022-12-23T17:34:23.699Z,28.70
2022-12-23T17:36:51.299Z,28.30
2022-12-23T17:39:21.100Z,29.87
2022-12-23T17:41:49.585Z,23.40
2022-12-23T17:44:17.637Z,23.87
2022-12-23T17:46:45.992Z,19.63
2022-12-23T17:49:13.049Z,18.23
2022-12-23T17:51:40.508Z,19.30
2022-12-23T17:54:08.919Z,19.50
2022-12-23T17:56:35.850Z,17.57
2022-12-23T17:59:02.571Z,17.77
2022-12-23T18:01:32.502Z,19.90
2022-12-23T18:04:00.405Z,17.37
2022-12-23T18:06:28.932Z,21.40
2022-12-23T18:08:58.875Z,26.27
2022-12-23T18:11:41.461Z,23.27
2022-12-23T18:14:26.775Z,18.27
2022-12-23T18:16:53.835Z,39.90
2022-12-23T18:19:21.371Z,31.77
2022-12-23T18:21:50.071Z,31.70
2022-12-23T18:24:17.263Z,20.20
2022-12-23T18:26:44.976Z,18.40
2022-12-23T18:29:12.064Z,16.53
2022-12-23T18:31:51.009Z,15.87
2022-12-23T18:34:18.991Z,18.40
2022-12-23T18:36:46.354Z,18.97
2022-12-23T18:39:13.258Z,20.20
2022-12-23T18:41:40.810Z,19.10
2022-12-23T18:44:17.188Z,22.40
2022-12-23T18:46:44.200Z,19.50
2022-12-23T18:49:12.224Z,17.13
2022-12-23T18:51:39.118Z,17.27
2022-12-23T18:54:05.953Z,15.33
2022-12-23T18:56:32.812Z,14.97
2022-12-23T18:58:59.610Z,15.07
2022-12-23T19:01:26.538Z,14.63
2022-12-23T19:03:53.321Z,15.57
2022-12-23T19:06:20.143Z,15.83
2022-12-23T19:08:46.967Z,16.03
2022-12-23T19:11:19.407Z,14.70
2022-12-23T19:13:46.960Z,15.53
2022-12-23T19:16:20.449Z,17.73
2022-12-23T19:18:48.422Z,15.73
2022-12-23T19:21:16.416Z,15.17
2022-12-23T19:23:44.300Z,16.07
2022-12-23T19:26:13.624Z,15.63
2022-12-23T19:28:43.681Z,15.40
2022-12-23T19:31:15.688Z,15.17
2022-12-23T19:33:45.327Z,15.57
2022-12-23T19:36:14.999Z,15.30
2022-12-23T19:38:42.552Z,14.83
2022-12-23T19:41:09.933Z,16.43
2022-12-23T19:43:38.411Z,16.33
2022-12-23T19:46:10.801Z,16.20
2022-12-23T19:48:38.285Z,16.53
2022-12-23T19:51:15.396Z,17.50
2022-12-23T19:53:42.162Z,17.70
2022-12-23T19:56:13.493Z,17.57
2022-12-23T19:58:42.567Z,18.80
2022-12-23T20:01:13.152Z,18.90
2022-12-23T20:03:41.007Z,17.80
2022-12-23T20:06:14.844Z,16.33
2022-12-23T20:08:43.595Z,16.40
2022-12-23T20:11:13.349Z,17.60
2022-12-23T20:13:40.391Z,18.33
2022-12-23T20:16:07.996Z,19.00
2022-12-23T20:18:34.879Z,18.63
2022-12-23T20:21:01.938Z,19.67
2022-12-23T20:23:29.685Z,20.97
2022-12-23T20:25:56.720Z,20.57
2022-12-23T20:28:23.468Z,19.80
2022-12-23T20:31:07.527Z,20.30
2022-12-23T20:33:39.040Z,22.70
2022-12-23T20:36:06.759Z,21.97
2022-12-23T20:38:35.052Z,23.00
2022-12-23T20:41:03.109Z,22.67
2022-12-23T20:43:29.843Z,22.77
2022-12-23T20:45:56.832Z,24.60
2022-12-23T20:48:28.201Z,24.83
2022-12-23T20:51:13.567Z,24.90
2022-12-23T20:53:40.612Z,26.50
2022-12-23T20:56:10.675Z,25.07
2022-12-23T20:58:57.732Z,25.60
2022-12-23T21:01:29.202Z,25.67
2022-12-23T21:03:57.973Z,25.47
2022-12-23T21:06:26.142Z,25.47
2022-12-23T21:08:55.657Z,26.57
2022-12-23T21:11:23.438Z,26.47
2022-12-23T21:13:51.321Z,25.33
2022-12-23T21:16:18.729Z,24.33
2022-12-23T21:18:52.665Z,24.53
2022-12-23T21:21:26.369Z,23.73
2022-12-23T21:23:55.744Z,24.70
2022-12-23T21:26:24.665Z,26.10
2022-12-23T21:28:53.726Z,29.20
2022-12-23T21:31:23.349Z,29.93
2022-12-23T21:33:51.405Z,28.40
2022-12-23T21:36:21.258Z,28.27
2022-12-23T21:38:49.140Z,28.17
2022-12-23T21:41:19.845Z,28.70
2022-12-23T21:43:46.965Z,27.10
2022-12-23T21:46:16.418Z,26.63
2022-12-23T21:48:44.301Z,24.80
2022-12-23T21:51:16.979Z,26.97
2022-12-23T21:53:45.474Z,27.40
2022-12-23T21:56:14.923Z,30.43
2022-12-23T21:58:42.354Z,26.20
2022-12-23T22:01:14.767Z,26.40
2022-12-23T22:03:42.557Z,26.00
2022-12-23T22:06:22.069Z,26.03
2022-12-23T22:08:49.589Z,27.27
2022-12-23T22:11:19.191Z,30.63
2022-12-23T22:13:47.054Z,28.40
2022-12-23T22:16:19.454Z,29.83
2022-12-23T22:18:47.436Z,29.37
2022-12-23T22:21:22.892Z,29.50
2022-12-23T22:23:51.235Z,29.23
2022-12-23T22:26:24.633Z,32.13
2022-12-23T22:28:52.801Z,30.17
2022-12-23T22:31:30.641Z,28.57
2022-12-23T22:33:57.853Z,32.03
2022-12-23T22:36:24.910Z,31.70
2022-12-23T22:38:57.404Z,31.00
2022-12-23T22:41:25.301Z,30.53
2022-12-23T22:43:52.063Z,34.33
2022-12-23T22:46:18.991Z,31.10
2022-12-23T22:48:46.498Z,31.90
2022-12-23T22:51:18.986Z,31.50
2022-12-23T22:53:46.563Z,31.00
2022-12-23T22:56:16.380Z,31.67
2022-12-23T22:58:43.708Z,31.23
2022-12-23T23:01:23.404Z,31.33
2022-12-23T23:03:57.004Z,36.90
2022-12-23T23:06:37.729Z,36.83
2022-12-23T23:09:06.961Z,36.90
2022-12-23T23:11:34.249Z,35.23
2022-12-23T23:14:01.142Z,35.67
2022-12-23T23:16:28.143Z,38.70
2022-12-23T23:18:55.506Z,38.83
2022-12-23T23:21:22.536Z,38.67
2022-12-23T23:23:49.938Z,40.33
2022-12-23T23:26:17.447Z,38.20
2022-12-23T23:28:44.713Z,38.57
2022-12-23T23:33:59.307Z,36.37
2022-12-23T23:36:26.092Z,38.77
2022-12-23T23:38:55.011Z,35.47
2022-12-23T23:41:23.515Z,37.43
2022-12-23T23:43:51.361Z,36.50
2022-12-23T23:46:18.946Z,36.03
2022-12-23T23:48:45.864Z,37.97
2022-12-23T23:51:12.908Z,38.83
2022-12-23T23:53:40.471Z,36.77
2022-12-23T23:56:08.207Z,33.73
2022-12-23T23:58:36.785Z,35.37
